createdAt,value
2023-03-12T00:00:22.264Z,10.05
2023-03-12T00:02:49.706Z,15.23
2023-03-12T00:05:17.218Z,11.70
2023-03-12T00:07:44.518Z,12.50
2023-03-12T00:10:12.208Z,10.05
2023-03-12T00:12:39.471Z,12.07
2023-03-12T00:15:07.420Z,10.68
2023-03-12T00:17:34.701Z,12.65
2023-03-12T00:20:01.999Z,9.20
2023-03-12T00:22:29.301Z,10.10
2023-03-12T00:24:57.269Z,10.93
2023-03-12T00:27:25.771Z,10.57
2023-03-12T00:29:53.550Z,10.10
2023-03-12T00:32:21.427Z,9.45
2023-03-12T00:34:53.288Z,8.90
2023-03-12T00:37:20.861Z,11.38
2023-03-12T00:39:48.236Z,10.32
2023-03-12T00:42:15.735Z,10.65
2023-03-12T00:44:44.246Z,10.15
2023-03-12T00:47:11.822Z,8.88
2023-03-12T00:49:39.126Z,9.50
2023-03-12T00:52:06.532Z,9.60
2023-03-12T00:54:33.850Z,12.25
2023-03-12T00:57:01.247Z,10.00
2023-03-12T00:59:28.889Z,12.27
2023-03-12T01:01:56.367Z,8.77
2023-03-12T01:04:23.980Z,11.85
2023-03-12T01:06:51.424Z,9.80
2023-03-12T01:09:19.205Z,11.10
2023-03-12T01:11:46.501Z,10.82
2023-03-12T01:14:13.777Z,11.93
2023-03-12T01:16:41.120Z,14.70
2023-03-12T01:19:08.467Z,10.20
2023-03-12T01:21:35.785Z,12.10
2023-03-12T01:24:03.389Z,9.27
2023-03-12T01:26:30.843Z,12.43
2023-03-12T01:28:58.405Z,12.32
2023-03-12T01:31:26.169Z,9.45
2023-03-12T01:33:53.990Z,10.00
2023-03-12T01:36:25.768Z,10.02
2023-03-12T01:38:54.025Z,8.77
2023-03-12T01:41:21.969Z,11.35
2023-03-12T01:43:49.498Z,10.98
2023-03-12T01:46:20.077Z,10.68
2023-03-12T01:48:50.355Z,11.48
2023-03-12T01:51:18.552Z,15.18
2023-03-12T01:53:47.467Z,14.02
2023-03-12T01:56:16.201Z,11.32
2023-03-12T01:58:45.941Z,12.52
2023-03-12T02:01:13.803Z,12.80
2023-03-12T02:03:41.644Z,10.75
2023-03-12T02:06:12.309Z,12.53
2023-03-12T02:08:42.111Z,9.70
2023-03-12T02:11:09.562Z,8.20
2023-03-12T02:13:37.938Z,9.93
2023-03-12T02:16:05.537Z,15.50
2023-03-12T02:18:34.617Z,8.95
2023-03-12T02:21:04.925Z,9.15
2023-03-12T02:23:44.482Z,8.05
2023-03-12T02:26:12.458Z,10.65
2023-03-12T02:28:44.036Z,7.32
2023-03-12T02:31:13.822Z,8.85
2023-03-12T02:33:43.416Z,9.57
2023-03-12T02:36:11.116Z,8.77
2023-03-12T02:38:44.329Z,11.00
2023-03-12T02:41:22.792Z,7.32
2023-03-12T02:44:02.062Z,14.38
2023-03-12T02:46:31.060Z,9.23
2023-03-12T02:48:58.840Z,9.63
2023-03-12T02:51:26.199Z,10.25
2023-03-12T02:53:55.122Z,8.88
2023-03-12T02:56:27.568Z,10.23
2023-03-12T02:58:55.071Z,7.90
2023-03-12T03:01:24.109Z,8.25
2023-03-12T03:03:51.652Z,10.45
2023-03-12T03:06:19.278Z,7.07
2023-03-12T03:08:46.702Z,9.48
2023-03-12T03:11:16.387Z,10.45
2023-03-12T03:13:43.672Z,7.80
2023-03-12T03:16:13.566Z,8.48
2023-03-12T03:18:41.040Z,11.02
2023-03-12T03:21:09.872Z,17.63
2023-03-12T03:23:37.944Z,8.80
2023-03-12T03:26:05.386Z,7.30
2023-03-12T03:28:32.706Z,7.82
2023-03-12T03:31:02.063Z,9.77
2023-03-12T03:33:35.200Z,15.23
2023-03-12T03:36:03.814Z,9.57
2023-03-12T03:38:37.462Z,12.63
2023-03-12T03:41:05.386Z,7.13
2023-03-12T03:43:35.932Z,7.50
2023-03-12T03:46:04.619Z,7.68
2023-03-12T03:48:35.417Z,10.10
2023-03-12T03:51:03.317Z,10.55
2023-03-12T03:53:32.895Z,10.52
2023-03-12T03:56:05.988Z,8.27
2023-03-12T03:58:34.347Z,7.22
2023-03-12T04:01:01.928Z,7.13
2023-03-12T04:03:29.737Z,8.30
2023-03-12T04:05:58.066Z,8.98
2023-03-12T04:08:25.933Z,6.33
2023-03-12T04:10:53.887Z,9.13
2023-03-12T04:13:22.012Z,10.50
2023-03-12T04:15:50.529Z,7.10
2023-03-12T04:18:18.732Z,8.57
2023-03-12T04:20:46.669Z,11.23
2023-03-12T04:23:13.928Z,7.78
2023-03-12T04:25:41.317Z,7.75
2023-03-12T04:28:08.680Z,9.05
2023-03-12T04:30:38.487Z,10.27
2023-03-12T04:33:06.919Z,7.72
2023-03-12T04:35:35.108Z,9.07
2023-03-12T04:38:04.057Z,8.98
2023-03-12T04:40:33.458Z,12.18
2023-03-12T04:43:00.929Z,7.60
2023-03-12T04:45:30.520Z,8.32
2023-03-12T04:47:58.032Z,7.03
2023-03-12T04:50:25.650Z,8.77
2023-03-12T04:52:53.103Z,9.00
2023-03-12T04:55:20.614Z,12.52
2023-03-12T04:57:48.249Z,9.65
2023-03-12T05:00:17.606Z,9.00
2023-03-12T05:02:46.837Z,9.15
2023-03-12T05:05:14.416Z,9.30
2023-03-12T05:07:42.418Z,9.10
2023-03-12T05:10:10.085Z,11.00
2023-03-12T05:12:37.637Z,11.38
2023-03-12T05:15:05.860Z,9.75
2023-03-12T05:17:33.438Z,7.78
2023-03-12T05:20:01.039Z,10.85
2023-03-12T05:22:28.519Z,9.48
2023-03-12T05:24:55.871Z,8.15
2023-03-12T05:27:26.116Z,13.25
2023-03-12T05:29:55.470Z,10.52
2023-03-12T05:32:23.440Z,14.75
2023-03-12T05:34:51.180Z,8.30
2023-03-12T05:37:18.589Z,8.73
2023-03-12T05:39:49.168Z,12.20
2023-03-12T05:42:17.773Z,12.52
2023-03-12T05:44:45.372Z,6.68
2023-03-12T05:47:23.787Z,11.85
2023-03-12T05:49:51.348Z,11.80
2023-03-12T05:52:18.772Z,11.93
2023-03-12T05:54:46.114Z,12.77
2023-03-12T05:57:13.472Z,12.52
2023-03-12T05:59:41.607Z,14.07
2023-03-12T06:02:09.833Z,20.50
2023-03-12T06:04:37.996Z,11.35
2023-03-12T06:07:05.948Z,10.35
2023-03-12T06:09:34.916Z,9.20
2023-03-12T06:12:02.308Z,15.15
2023-03-12T06:14:30.531Z,12.57
2023-03-12T06:16:58.673Z,13.40
2023-03-12T06:19:26.059Z,19.33
2023-03-12T06:21:53.599Z,12.23
2023-03-12T06:24:21.046Z,15.35
2023-03-12T06:26:51.127Z,14.38
2023-03-12T06:29:18.519Z,13.10
2023-03-12T06:31:46.980Z,13.52
2023-03-12T06:34:16.775Z,9.10
2023-03-12T06:36:44.126Z,10.57
2023-03-12T06:39:11.429Z,14.32
2023-03-12T06:41:38.814Z,11.65
2023-03-12T06:44:06.623Z,13.88
2023-03-12T06:46:34.348Z,15.40
2023-03-12T06:49:01.676Z,10.55
2023-03-12T06:51:29.104Z,11.18
2023-03-12T06:53:56.402Z,16.00
2023-03-12T06:56:23.692Z,11.95
2023-03-12T06:58:51.016Z,18.52
2023-03-12T07:01:18.520Z,14.02
2023-03-12T07:03:46.007Z,13.57
2023-03-12T07:06:14.293Z,18.48
2023-03-12T07:08:41.640Z,18.80
2023-03-12T07:11:08.939Z,14.15
2023-03-12T07:13:36.568Z,17.65
2023-03-12T07:16:03.983Z,16.45
2023-03-12T07:18:31.286Z,12.80
2023-03-12T07:20:58.626Z,19.30
2023-03-12T07:23:25.954Z,13.95
2023-03-12T07:25:53.624Z,14.35
2023-03-12T07:28:21.473Z,21.17
2023-03-12T07:30:50.694Z,20.02
2023-03-12T07:35:51.484Z,21.00
2023-03-12T07:38:19.250Z,17.58
2023-03-12T07:40:50.748Z,20.90
2023-03-12T07:43:20.334Z,17.40
2023-03-12T07:45:49.776Z,20.55
2023-03-12T07:48:19.567Z,17.17
2023-03-12T07:50:46.954Z,21.83
2023-03-12T07:53:14.258Z,25.65
2023-03-12T07:55:44.485Z,21.75
2023-03-12T07:58:13.027Z,24.27
2023-03-12T08:00:40.380Z,22.30
2023-03-12T08:03:07.969Z,25.23
2023-03-12T08:05:35.449Z,30.33
2023-03-12T08:08:02.768Z,20.10
2023-03-12T08:10:30.295Z,28.13
2023-03-12T08:12:57.633Z,25.67
2023-03-12T08:15:25.443Z,25.23
2023-03-12T08:17:52.822Z,25.08
2023-03-12T08:20:20.253Z,28.02
2023-03-12T08:22:47.719Z,23.80
2023-03-12T08:25:16.030Z,24.90
2023-03-12T08:27:43.373Z,27.08
2023-03-12T08:30:11.084Z,27.15
2023-03-12T08:32:38.600Z,29.30
2023-03-12T08:35:06.207Z,32.08
2023-03-12T08:37:33.609Z,34.22
2023-03-12T08:40:01.048Z,33.03
2023-03-12T08:42:28.442Z,31.65
2023-03-12T08:44:55.734Z,37.03
2023-03-12T08:47:23.032Z,36.03
2023-03-12T08:49:50.289Z,45.55
2023-03-12T08:52:17.616Z,44.50
2023-03-12T08:54:44.903Z,42.28
2023-03-12T08:57:12.229Z,47.60
2023-03-12T08:59:39.893Z,55.88
2023-03-12T09:02:07.768Z,54.78
2023-03-12T09:04:35.424Z,55.15
2023-03-12T09:07:02.699Z,49.95
2023-03-12T09:09:30.179Z,63.67
2023-03-12T09:11:57.512Z,58.38
2023-03-12T09:17:12.073Z,62.45
2023-03-12T09:19:40.225Z,66.60
2023-03-12T09:22:07.624Z,62.20
2023-03-12T09:24:34.917Z,62.13
2023-03-12T09:27:03.061Z,64.13
2023-03-12T09:29:30.810Z,69.68
2023-03-12T09:31:58.096Z,74.55
2023-03-12T09:34:25.399Z,76.55
2023-03-12T09:36:52.686Z,69.75
2023-03-12T09:39:20.923Z,72.07
2023-03-12T09:41:48.918Z,63.72
2023-03-12T09:44:27.437Z,67.90
2023-03-12T09:46:56.769Z,54.80
2023-03-12T09:49:36.093Z,65.03
2023-03-12T09:54:47.412Z,60.70
2023-03-12T09:57:22.653Z,57.75
2023-03-12T09:59:50.956Z,70.90
2023-03-12T10:02:24.830Z,62.67
2023-03-12T10:05:13.577Z,63.83
2023-03-12T10:07:51.220Z,52.35
2023-03-12T10:10:40.720Z,65.63
2023-03-12T10:13:11.410Z,49.75
2023-03-12T10:15:48.134Z,30.90
2023-03-12T10:18:28.455Z,38.17
2023-03-12T10:21:09.020Z,38.53
2023-03-12T10:23:54.167Z,29.58
2023-03-12T10:26:32.185Z,34.88
2023-03-12T10:29:19.849Z,37.00
2023-03-12T10:32:08.429Z,45.40
2023-03-12T10:34:41.144Z,34.72
2023-03-12T10:37:27.291Z,41.88
2023-03-12T10:39:55.782Z,34.55
2023-03-12T10:42:24.509Z,51.57
2023-03-12T10:44:53.003Z,59.88
2023-03-12T10:47:29.618Z,47.90
2023-03-12T10:50:11.862Z,56.53
2023-03-12T10:52:39.328Z,42.55
2023-03-12T10:55:33.013Z,42.28
2023-03-12T10:58:00.353Z,37.97
2023-03-12T11:00:28.767Z,44.13
2023-03-12T11:03:03.703Z,52.23
2023-03-12T11:05:32.741Z,53.40
2023-03-12T11:08:01.749Z,50.58
2023-03-12T11:10:42.237Z,49.65
2023-03-12T11:13:36.357Z,37.40
2023-03-12T11:16:25.042Z,52.75
2023-03-12T11:18:57.053Z,45.85
2023-03-12T11:21:24.364Z,47.05
2023-03-12T11:23:57.832Z,35.65
2023-03-12T11:26:27.311Z,44.55
2023-03-12T11:29:06.469Z,48.20
2023-03-12T11:31:39.582Z,43.45
2023-03-12T11:34:08.968Z,50.58
2023-03-12T11:39:12.471Z,45.25
2023-03-12T11:41:39.947Z,52.47
2023-03-12T11:44:07.363Z,40.63
2023-03-12T11:46:34.772Z,37.90
2023-03-12T11:49:12.478Z,49.45
2023-03-12T11:51:46.383Z,51.58
2023-03-12T11:54:16.844Z,55.53
2023-03-12T11:56:52.464Z,59.42
2023-03-12T11:59:38.527Z,52.55
2023-03-12T12:02:18.142Z,48.63
2023-03-12T12:04:54.765Z,49.67
2023-03-12T12:07:41.033Z,53.50
2023-03-12T12:10:15.554Z,43.30
2023-03-12T12:12:42.892Z,49.55
2023-03-12T12:15:19.103Z,37.47
2023-03-12T12:17:55.288Z,37.42
2023-03-12T12:20:26.781Z,39.50
2023-03-12T12:23:13.369Z,42.72
2023-03-12T12:25:41.207Z,29.35
2023-03-12T12:28:08.667Z,35.65
2023-03-12T12:30:56.372Z,33.15
2023-03-12T12:33:44.330Z,44.67
2023-03-12T12:36:11.786Z,33.22
2023-03-12T12:38:52.510Z,34.80
2023-03-12T12:41:22.596Z,35.67
2023-03-12T12:44:01.882Z,34.03
2023-03-12T12:48:59.838Z,33.00
2023-03-12T12:51:38.682Z,31.83
2023-03-12T12:54:16.222Z,29.95
2023-03-12T12:56:43.538Z,36.35
2023-03-12T12:59:17.081Z,30.25
2023-03-12T13:01:44.861Z,25.63
2023-03-12T13:04:14.045Z,37.72
2023-03-12T13:07:00.245Z,26.55
2023-03-12T13:09:41.974Z,35.22
2023-03-12T13:12:28.316Z,29.77
2023-03-12T13:14:56.674Z,29.75
2023-03-12T13:17:29.251Z,21.93
2023-03-12T13:20:12.295Z,28.80
2023-03-12T13:22:39.828Z,27.13
2023-03-12T13:25:16.488Z,32.92
2023-03-12T13:27:46.436Z,25.15
2023-03-12T13:30:32.607Z,24.23
2023-03-12T13:33:02.938Z,29.92
2023-03-12T13:35:32.302Z,35.00
2023-03-12T13:38:01.947Z,27.05
2023-03-12T13:43:08.914Z,27.23
2023-03-12T13:45:48.621Z,34.47
2023-03-12T13:48:17.532Z,30.80
2023-03-12T13:50:52.183Z,20.13
2023-03-12T13:53:28.663Z,28.67
2023-03-12T13:56:07.743Z,25.70
2023-03-12T13:59:01.543Z,25.90
2023-03-12T14:01:33.234Z,22.88
2023-03-12T14:04:02.858Z,24.52
2023-03-12T14:06:31.795Z,27.58
2023-03-12T14:09:05.005Z,27.02
2023-03-12T14:11:38.506Z,25.67
2023-03-12T14:14:24.638Z,25.75
2023-03-12T14:16:53.177Z,22.83
2023-03-12T14:19:24.892Z,21.55
2023-03-12T14:21:52.982Z,26.05
2023-03-12T14:24:20.381Z,19.45
2023-03-12T14:26:47.806Z,22.80
2023-03-12T14:29:21.392Z,24.65
2023-03-12T14:31:49.524Z,19.65
2023-03-12T14:34:24.149Z,18.67
2023-03-12T14:36:58.874Z,22.98
2023-03-12T14:39:37.501Z,22.35
2023-03-12T14:42:06.121Z,23.05
2023-03-12T14:44:34.320Z,18.98
2023-03-12T14:47:12.068Z,18.38
2023-03-12T14:49:41.229Z,19.10
2023-03-12T14:54:35.961Z,29.73
2023-03-12T14:57:03.332Z,24.40
2023-03-12T14:59:32.076Z,26.85
2023-03-12T15:02:12.671Z,21.75
2023-03-12T15:04:41.092Z,28.48
2023-03-12T15:07:11.399Z,30.60
2023-03-12T15:09:41.290Z,29.83
2023-03-12T15:12:17.946Z,31.77
2023-03-12T15:14:45.601Z,29.30
2023-03-12T15:17:17.535Z,26.23
2023-03-12T15:19:45.097Z,30.50
2023-03-12T15:22:16.251Z,27.58
2023-03-12T15:24:44.151Z,32.30
2023-03-12T15:27:32.106Z,25.55
2023-03-12T15:30:00.542Z,29.67
2023-03-12T15:32:30.599Z,21.17
2023-03-12T15:34:59.879Z,27.98
2023-03-12T15:37:32.736Z,27.15
2023-03-12T15:40:02.221Z,25.15
2023-03-12T15:42:29.945Z,21.15
2023-03-12T15:45:03.368Z,31.00
2023-03-12T15:47:32.676Z,31.42
2023-03-12T15:50:01.970Z,23.35
2023-03-12T15:55:04.666Z,26.02
2023-03-12T15:57:34.385Z,31.75
2023-03-12T16:00:14.887Z,26.35
2023-03-12T16:02:57.531Z,27.05
2023-03-12T16:05:36.110Z,29.05
2023-03-12T16:08:25.919Z,21.65
2023-03-12T16:10:54.553Z,22.52
2023-03-12T16:13:23.613Z,33.50
2023-03-12T16:15:51.048Z,17.15
2023-03-12T16:18:20.144Z,29.92
2023-03-12T16:23:15.780Z,25.05
2023-03-12T16:25:45.522Z,27.45
2023-03-12T16:28:14.989Z,29.52
2023-03-12T16:30:42.487Z,39.65
2023-03-12T16:33:14.157Z,29.15
2023-03-12T16:35:42.036Z,29.65
2023-03-12T16:38:09.596Z,21.92
2023-03-12T16:40:38.634Z,32.45
2023-03-12T16:43:07.985Z,34.53
2023-03-12T16:45:36.369Z,29.73
2023-03-12T16:48:07.254Z,33.13
2023-03-12T16:50:34.705Z,37.05
2023-03-12T16:53:03.608Z,31.20
2023-03-12T16:55:32.669Z,31.23
2023-03-12T16:58:01.484Z,28.65
2023-03-12T17:00:30.527Z,40.78
2023-03-12T17:02:59.019Z,37.38
2023-03-12T17:05:27.015Z,39.58
2023-03-12T17:07:54.741Z,33.08
2023-03-12T17:10:22.722Z,40.75
2023-03-12T17:12:50.452Z,41.15
2023-03-12T17:15:22.706Z,40.25
2023-03-12T17:17:50.745Z,33.80
2023-03-12T17:20:23.822Z,28.85
2023-03-12T17:22:51.404Z,44.88
2023-03-12T17:25:23.799Z,35.67
2023-03-12T17:27:51.445Z,40.72
2023-03-12T17:30:19.214Z,32.92
2023-03-12T17:32:46.801Z,32.40
2023-03-12T17:35:14.463Z,25.63
2023-03-12T17:37:41.814Z,25.40
2023-03-12T17:40:10.015Z,25.95
2023-03-12T17:42:38.175Z,22.92
2023-03-12T17:45:06.586Z,11.43
2023-03-12T17:47:34.535Z,18.88
2023-03-12T17:50:02.136Z,16.70
2023-03-12T17:52:29.456Z,13.05
2023-03-12T17:54:56.861Z,15.07
2023-03-12T17:57:25.082Z,13.55
2023-03-12T17:59:52.353Z,12.60
2023-03-12T18:02:19.674Z,15.10
2023-03-12T18:04:47.316Z,16.55
2023-03-12T18:07:15.074Z,11.00
2023-03-12T18:09:42.443Z,13.93
2023-03-12T18:12:11.247Z,13.10
2023-03-12T18:14:38.745Z,16.40
2023-03-12T18:17:06.097Z,11.75
2023-03-12T18:19:35.279Z,14.65
2023-03-12T18:22:02.992Z,13.48
2023-03-12T18:24:30.553Z,16.33
2023-03-12T18:26:59.303Z,15.57
2023-03-12T18:29:27.028Z,15.70
2023-03-12T18:31:54.420Z,12.38
2023-03-12T18:34:23.490Z,14.07
2023-03-12T18:36:51.044Z,19.20
2023-03-12T18:39:18.654Z,17.23
2023-03-12T18:41:46.096Z,19.38
2023-03-12T18:44:13.495Z,41.33
2023-03-12T18:46:41.083Z,18.35
2023-03-12T18:49:09.324Z,17.55
2023-03-12T18:51:36.776Z,21.45
2023-03-12T18:54:04.255Z,22.35
2023-03-12T18:56:31.623Z,22.50
2023-03-12T18:58:58.916Z,20.45
2023-03-12T19:01:26.452Z,25.60
2023-03-12T19:03:53.811Z,19.25
2023-03-12T19:06:21.375Z,16.55
2023-03-12T19:08:48.662Z,48.50
2023-03-12T19:11:16.765Z,56.78
2023-03-12T19:13:44.365Z,25.60
2023-03-12T19:16:12.843Z,20.80
2023-03-12T19:18:40.342Z,24.45
2023-03-12T19:21:08.520Z,23.20
2023-03-12T19:23:36.547Z,19.38
2023-03-12T19:26:04.261Z,19.42
2023-03-12T19:28:31.741Z,25.60
2023-03-12T19:31:02.822Z,11.90
2023-03-12T19:33:30.410Z,20.70
2023-03-12T19:35:58.062Z,19.08
2023-03-12T19:38:26.489Z,14.23
2023-03-12T19:40:55.592Z,21.92
2023-03-12T19:43:23.486Z,19.17
2023-03-12T19:45:51.092Z,19.17
2023-03-12T19:48:18.423Z,14.98
2023-03-12T19:50:45.815Z,13.98
2023-03-12T19:53:13.926Z,11.32
2023-03-12T19:55:41.258Z,13.70
2023-03-12T19:58:08.591Z,14.15
2023-03-12T20:00:36.587Z,15.00
2023-03-12T20:03:05.141Z,20.10
2023-03-12T20:05:32.561Z,17.75
2023-03-12T20:07:59.885Z,12.82
2023-03-12T20:10:29.401Z,18.75
2023-03-12T20:12:56.716Z,18.67
2023-03-12T20:15:24.087Z,22.10
2023-03-12T20:17:54.667Z,17.23
2023-03-12T20:20:22.092Z,17.98
2023-03-12T20:22:49.520Z,28.98
2023-03-12T20:25:16.941Z,18.77
2023-03-12T20:27:44.819Z,21.33
2023-03-12T20:30:12.580Z,31.02
2023-03-12T20:32:40.037Z,23.52
2023-03-12T20:35:10.008Z,30.42
2023-03-12T20:37:37.581Z,25.73
2023-03-12T20:40:05.401Z,23.35
2023-03-12T20:42:32.770Z,17.38
2023-03-12T20:45:00.354Z,33.53
2023-03-12T20:47:28.589Z,30.90
2023-03-12T20:49:56.027Z,28.38
2023-03-12T20:52:23.476Z,25.70
2023-03-12T20:54:51.166Z,25.80
2023-03-12T20:57:18.482Z,25.60
2023-03-12T20:59:45.804Z,24.13
2023-03-12T21:02:14.186Z,31.35
2023-03-12T21:04:42.345Z,26.03
2023-03-12T21:07:09.809Z,26.07
2023-03-12T21:09:37.409Z,31.92
2023-03-12T21:12:04.809Z,19.52
2023-03-12T21:14:32.234Z,19.80
2023-03-12T21:16:59.703Z,19.13
2023-03-12T21:19:29.995Z,18.05
2023-03-12T21:21:57.342Z,21.70
2023-03-12T21:24:24.649Z,30.48
2023-03-12T21:26:52.510Z,26.45
2023-03-12T21:29:19.833Z,21.05
2023-03-12T21:31:47.153Z,27.10
2023-03-12T21:34:14.556Z,18.10
2023-03-12T21:36:42.040Z,19.98
2023-03-12T21:39:09.320Z,20.13
2023-03-12T21:41:37.159Z,18.75
2023-03-12T21:44:04.650Z,22.23
2023-03-12T21:46:32.092Z,27.38
2023-03-12T21:48:59.446Z,19.52
2023-03-12T21:51:27.013Z,24.58
2023-03-12T21:53:55.351Z,20.88
2023-03-12T21:56:22.757Z,28.33
2023-03-12T21:58:50.085Z,21.85
2023-03-12T22:01:18.905Z,27.83
2023-03-12T22:03:46.773Z,27.10
2023-03-12T22:06:14.839Z,27.30
2023-03-12T22:08:42.920Z,21.42
2023-03-12T22:11:10.846Z,26.20
2023-03-12T22:13:38.286Z,23.55
2023-03-12T22:16:07.784Z,26.17
2023-03-12T22:18:36.114Z,25.10
2023-03-12T22:21:07.787Z,23.80
2023-03-12T22:23:36.480Z,28.30
2023-03-12T22:26:05.494Z,18.48
2023-03-12T22:28:33.452Z,22.38
2023-03-12T22:31:05.377Z,29.55
2023-03-12T22:33:33.004Z,27.45
2023-03-12T22:36:00.494Z,28.50
2023-03-12T22:38:27.867Z,30.98
2023-03-12T22:40:55.973Z,29.77
2023-03-12T22:43:25.621Z,24.85
2023-03-12T22:45:56.025Z,28.75
2023-03-12T22:48:23.360Z,32.40
2023-03-12T22:50:54.841Z,26.48
2023-03-12T22:53:22.271Z,20.52
2023-03-12T22:55:59.678Z,29.33
2023-03-12T22:58:27.383Z,25.83
2023-03-12T23:01:06.264Z,35.17
2023-03-12T23:03:34.431Z,38.47
2023-03-12T23:06:02.082Z,27.17
2023-03-12T23:08:29.968Z,32.10
2023-03-12T23:10:59.029Z,23.73
2023-03-12T23:13:27.065Z,31.15
2023-03-12T23:15:54.989Z,22.45
2023-03-12T23:18:22.420Z,25.67
2023-03-12T23:20:57.917Z,33.92
2023-03-12T23:23:25.340Z,27.60
2023-03-12T23:25:53.706Z,33.28
2023-03-12T23:28:22.330Z,30.02
2023-03-12T23:31:00.313Z,24.25
2023-03-12T23:33:29.131Z,28.27
2023-03-12T23:35:56.623Z,25.60
2023-03-12T23:38:24.213Z,26.65
2023-03-12T23:40:51.553Z,27.08
2023-03-12T23:43:19.216Z,25.08
2023-03-12T23:45:46.946Z,28.33
2023-03-12T23:48:14.268Z,23.52
2023-03-12T23:50:41.648Z,31.35
2023-03-12T23:53:08.905Z,27.65
2023-03-12T23:55:36.230Z,23.90
2023-03-12T23:58:03.580Z,26.42
